Time;durP1;ratioP1;P1;durP2;ratioP2;P2;SDS_P1;SDS_P2;PMS_P1;PMS_P2;Temp;Humidity;BMP_temperature;BMP_pressure;BME280_temperature;BME280_humidity;BME280_pressure;Samples;Min_cycle;Max_cycle;Signal;HPM_P1;HPM_P2
2022/10/18 00:03:17;;;;;;;8.27;5.68;;;;;;;-145.48;100.00;64539.38;6051705;29;20704;-89
2022/10/18 00:07:17;;;;;;;9.73;6.63;;;;;;;-145.48;100.00;64539.38;6044160;29;20056;-89
2022/10/18 00:11:18;;;;;;;7.47;5.75;;;;;;;-145.48;100.00;64539.38;6044445;29;20096;-89
2022/10/18 00:15:19;;;;;;;8.68;5.82;;;;;;;-145.48;100.00;64539.38;6039449;29;20056;-89
2022/10/18 00:19:19;;;;;;;;;;;;;;;-145.48;100.00;64539.38;6041564;29;20145;-89
2022/10/18 00:23:25;;;;;;;8.55;5.75;;;;;;;-145.48;100.00;64539.38;6037471;29;19947;-89
2022/10/18 00:27:28;;;;;;;9.77;5.45;;;;;;;-145.48;100.00;64539.38;6057679;29;20048;-89
2022/10/18 00:31:30;;;;;;;10.93;6.70;;;;;;;-145.48;100.00;64539.38;6056398;29;20055;-89
2022/10/18 00:35:32;;;;;;;9.43;7.07;;;;;;;-145.48;100.00;64539.38;6046601;29;20052;-89
2022/10/18 00:39:33;;;;;;;10.57;7.50;;;;;;;-145.48;100.00;64539.38;6036597;29;20045;-89
2022/10/18 00:43:53;;;;;;;8.77;6.45;;;;;;;-145.48;100.00;64539.38;6042745;29;20061;-89
2022/10/18 00:47:58;;;;;;;10.23;6.53;;;;;;;-145.48;100.00;64539.38;6038959;29;20048;-89
2022/10/18 00:52:02;;;;;;;10.25;6.75;;;;;;;-145.48;100.00;64539.38;6049753;29;20533;-89
2022/10/18 00:56:04;;;;;;;8.55;6.75;;;;;;;-145.48;100.00;64539.38;6040965;29;20523;-89
2022/10/18 01:00:08;;;;;;;8.90;5.68;;;;;;;-145.48;100.00;64539.38;6042344;29;20416;-89
2022/10/18 01:04:09;;;;;;;6.75;5.72;;;;;;;-145.48;100.00;64539.38;6058613;29;20059;-89
2022/10/18 01:08:44;;;;;;;9.63;5.82;;;;;;;-145.48;100.00;64539.38;6049849;29;20412;-89
2022/10/18 01:13:20;;;;;;;6.28;5.55;;;;;;;-145.48;100.00;64539.38;6048963;29;20127;-89
2022/10/18 01:17:37;;;;;;;9.23;5.45;;;;;;;-145.48;100.00;64539.38;6004842;29;20045;-89
2022/10/18 01:22:06;;;;;;;8.30;5.28;;;;;;;-145.48;100.00;64539.38;5998772;29;20500;-89
2022/10/18 01:26:58;;;;;;;10.82;5.60;;;;;;;-145.48;100.00;64539.38;5997542;29;20110;-89
2022/10/18 01:31:15;;;;;;;8.05;5.35;;;;;;;-145.48;100.00;64539.38;5917815;29;20142;-89
2022/10/18 01:35:18;;;;;;;6.43;5.40;;;;;;;-145.48;100.00;64539.38;5929837;29;20190;-89
2022/10/18 01:39:23;;;;;;;8.90;6.47;;;;;;;-145.48;100.00;64539.38;5931738;29;20243;-89
2022/10/18 01:43:26;;;;;;;12.20;8.50;;;;;;;-145.48;100.00;64539.38;5923651;29;20060;-90
2022/10/18 01:47:29;;;;;;;10.52;7.60;;;;;;;-145.48;100.00;64539.38;5929866;29;20073;-89
2022/10/18 01:51:32;;;;;;;11.98;8.52;;;;;;;-145.48;100.00;64539.38;5943627;29;20150;-89
2022/10/18 01:55:43;;;;;;;11.73;7.85;;;;;;;-145.48;100.00;64539.38;5975898;29;20584;-89
2022/10/18 01:59:49;;;;;;;9.95;7.70;;;;;;;-145.48;100.00;64539.38;5993289;29;20057;-90
2022/10/18 02:04:21;;;;;;;11.40;7.80;;;;;;;-145.48;100.00;64539.38;6045474;29;20536;-89
2022/10/18 02:09:08;;;;;;;14.07;9.07;;;;;;;-145.48;100.00;64539.38;6047392;29;20390;-90
2022/10/18 02:13:14;;;;;;;12.48;8.05;;;;;;;-145.48;100.00;64539.38;6034412;29;20056;-90
2022/10/18 02:17:18;;;;;;;15.63;9.32;;;;;;;-145.48;100.00;64539.38;6027972;29;20101;-89
2022/10/18 02:21:22;;;;;;;13.18;9.02;;;;;;;-145.48;100.00;64539.38;6042785;29;21067;-89
2022/10/18 02:25:27;;;;;;;16.15;10.23;;;;;;;-145.48;100.00;64539.38;6026750;29;20162;-89
2022/10/18 02:29:28;;;;;;;17.65;10.15;;;;;;;-145.48;100.00;64539.38;6039859;29;20057;-89
2022/10/18 02:33:52;;;;;;;15.05;10.40;;;;;;;-145.48;100.00;64539.38;6031500;29;20057;-90
2022/10/18 02:37:59;;;;;;;15.07;10.43;;;;;;;-145.48;100.00;64539.38;6010132;29;20071;-89
2022/10/18 02:42:00;;;;;;;15.20;10.85;;;;;;;-145.48;100.00;64539.38;6037042;29;20117;-90
2022/10/18 02:46:01;;;;;;;17.27;11.00;;;;;;;-145.48;100.00;64539.38;6041166;29;20056;-90
2022/10/18 02:50:02;;;;;;;12.52;9.35;;;;;;;-145.48;100.00;64539.38;6047110;29;20502;-90
2022/10/18 02:54:03;;;;;;;;;;;;;;;-145.48;100.00;64539.38;6047016;29;20449;-90
2022/10/18 02:58:03;;;;;;;15.73;9.75;;;;;;;-145.48;100.00;64539.38;6046115;29;20276;-90
2022/10/18 03:02:04;;;;;;;18.50;10.63;;;;;;;-145.48;100.00;64539.38;6045254;29;20481;-90
2022/10/18 03:06:04;;;;;;;17.38;10.38;;;;;;;-145.48;100.00;64539.38;6043672;29;20053;-90
2022/10/18 03:10:05;;;;;;;16.63;9.57;;;;;;;-145.48;100.00;64539.38;6038026;29;20404;-90
2022/10/18 03:14:05;;;;;;;13.82;9.68;;;;;;;-145.48;100.00;64539.38;6037363;29;20084;-89
2022/10/18 03:18:06;;;;;;;15.63;10.35;;;;;;;-145.48;100.00;64539.38;6060375;29;20368;-90
2022/10/18 03:22:07;;;;;;;15.43;10.50;;;;;;;-145.48;100.00;64539.38;6045356;29;20403;-90
2022/10/18 03:25:10;;;;;;;16.17;10.98;;;;;;;-145.48;100.00;64539.38;6042690;29;20476;-89
2022/10/18 03:28:57;;;;;;;18.10;9.90;;;;;;;-145.48;100.00;64539.38;6044390;29;20530;-90
2022/10/18 03:32:06;;;;;;;20.40;10.77;;;;;;;-145.48;100.00;64539.38;6040124;29;20103;-90
2022/10/18 03:35:15;;;;;;;19.05;11.68;;;;;;;-145.48;100.00;64539.38;6045829;29;20040;-90
2022/10/18 03:38:18;;;;;;;19.17;12.23;;;;;;;-145.48;100.00;64539.38;6042772;29;20053;-90
2022/10/18 03:41:22;;;;;;;21.52;12.63;;;;;;;-145.48;100.00;64539.38;6041301;29;20088;-90
2022/10/18 03:44:24;;;;;;;19.30;13.13;;;;;;;-145.48;100.00;64539.38;6041696;29;20056;-90
2022/10/18 03:47:26;;;;;;;20.02;11.20;;;;;;;-145.48;100.00;64539.38;6045557;29;20053;-90
2022/10/18 03:50:29;;;;;;;20.75;11.98;;;;;;;-145.48;100.00;64539.38;6045442;29;20037;-90
2022/10/18 03:53:31;;;;;;;21.08;12.05;;;;;;;-145.48;100.00;64539.38;6041366;29;20080;-90
2022/10/18 03:56:33;;;;;;;19.15;12.25;;;;;;;-145.48;100.00;64539.38;6043584;29;20048;-90
2022/10/18 03:59:35;;;;;;;16.08;11.48;;;;;;;-145.48;100.00;64539.38;6043958;29;20101;-90
2022/10/18 04:02:37;;;;;;;14.50;10.30;;;;;;;-145.48;100.00;64539.38;6044856;29;20045;-90
2022/10/18 04:05:39;;;;;;;16.63;10.63;;;;;;;-145.48;100.00;64539.38;6046953;29;20044;-90
2022/10/18 04:08:41;;;;;;;18.70;12.07;;;;;;;-145.48;100.00;64539.38;6044876;29;20571;-90
2022/10/18 04:11:43;;;;;;;16.85;11.00;;;;;;;-145.48;100.00;64539.38;6041377;29;20446;-89
2022/10/18 04:15:52;;;;;;;17.80;11.13;;;;;;;-145.48;100.00;64539.38;6033993;29;20592;-90
2022/10/18 04:19:52;;;;;;;17.85;11.13;;;;;;;-145.48;100.00;64539.38;6038405;29;20041;-90
2022/10/18 04:23:53;;;;;;;16.27;10.10;;;;;;;-145.48;100.00;64539.38;6035980;29;20053;-90
2022/10/18 04:27:53;;;;;;;16.55;10.73;;;;;;;-145.48;100.00;64539.38;6041314;29;20045;-90
2022/10/18 04:31:53;;;;;;;15.77;10.23;;;;;;;-145.48;100.00;64539.38;6032966;29;20038;-90
2022/10/18 04:35:53;;;;;;;14.67;10.47;;;;;;;-145.48;100.00;64539.38;6027000;29;20064;-90
2022/10/18 04:39:54;;;;;;;14.23;10.25;;;;;;;-145.48;100.00;64539.38;6042492;29;20428;-90
2022/10/18 04:43:54;;;;;;;18.63;11.65;;;;;;;-145.48;100.00;64539.38;6038395;29;20049;-90
2022/10/18 04:47:54;;;;;;;18.55;12.10;;;;;;;-145.48;100.00;64539.38;6057572;29;20160;-90
2022/10/18 04:51:55;;;;;;;18.88;11.35;;;;;;;-145.48;100.00;64539.38;6048089;29;20040;-90
2022/10/18 04:55:55;;;;;;;20.20;12.55;;;;;;;-145.48;100.00;64539.38;6052676;29;20045;-90
2022/10/18 04:59:56;;;;;;;20.42;13.15;;;;;;;-145.48;100.00;64539.38;6046305;29;20041;-90
2022/10/18 05:03:56;;;;;;;21.13;12.30;;;;;;;-145.48;100.00;64539.38;6029194;29;20462;-90
2022/10/18 05:07:57;;;;;;;22.55;12.30;;;;;;;-145.48;100.00;64539.38;6047249;29;20045;-90
2022/10/18 05:11:56;;;;;;;20.63;12.45;;;;;;;-145.48;100.00;64539.38;6046247;29;20758;-90
2022/10/18 05:15:59;;;;;;;19.85;12.50;;;;;;;-145.48;100.00;64539.38;6057585;29;20494;-90
2022/10/18 05:20:01;;;;;;;20.92;12.05;;;;;;;-145.48;100.00;64539.38;6043828;29;20049;-90
2022/10/18 05:24:01;;;;;;;17.83;12.23;;;;;;;-145.48;100.00;64539.38;6049363;29;20088;-90
2022/10/18 05:28:01;;;;;;;18.30;12.57;;;;;;;-145.48;100.00;64539.38;6050507;29;20061;-90
2022/10/18 05:32:14;;;;;;;21.73;12.55;;;;;;;-145.48;100.00;64539.38;6041677;29;20124;-90
2022/10/18 05:36:15;;;;;;;17.10;11.27;;;;;;;-145.48;100.00;64539.38;6058802;29;20495;-89
2022/10/18 05:40:15;;;;;;;17.98;11.70;;;;;;;-145.48;100.00;64539.38;6037067;29;20061;-90
2022/10/18 05:44:16;;;;;;;20.10;11.85;;;;;;;-145.48;100.00;64539.38;6034521;29;20458;-90
2022/10/18 05:48:16;;;;;;;17.00;11.27;;;;;;;-145.48;100.00;64539.38;6035073;29;20452;-90
2022/10/18 05:52:17;;;;;;;19.02;10.48;;;;;;;-145.48;100.00;64539.38;6044860;29;20436;-90
2022/10/18 05:56:17;;;;;;;14.95;9.98;;;;;;;-145.48;100.00;64539.38;6047043;29;20033;-90
2022/10/18 06:00:17;;;;;;;14.80;10.43;;;;;;;-145.48;100.00;64539.38;6040345;29;20045;-90
2022/10/18 06:04:18;;;;;;;14.20;9.95;;;;;;;-145.48;100.00;64539.38;6039627;29;20509;-90
2022/10/18 06:08:18;;;;;;;15.48;9.93;;;;;;;-145.48;100.00;64539.38;6034362;29;20104;-90
2022/10/18 06:12:19;;;;;;;14.55;9.45;;;;;;;-145.48;100.00;64539.38;6017709;29;20452;-90
2022/10/18 06:16:20;;;;;;;15.70;9.20;;;;;;;-145.48;100.00;64539.38;6054013;29;20125;-90
2022/10/18 06:20:21;;;;;;;13.82;9.25;;;;;;;-145.48;100.00;64539.38;6043619;29;20401;-90
2022/10/18 06:24:22;;;;;;;18.35;9.80;;;;;;;-145.48;100.00;64539.38;6060921;29;20041;-89
2022/10/18 06:28:23;;;;;;;15.02;9.80;;;;;;;-145.48;100.00;64539.38;6043174;29;20536;-89
2022/10/18 06:32:23;;;;;;;14.07;8.95;;;;;;;-145.48;100.00;64539.38;6056908;29;20049;-89
2022/10/18 06:36:24;;;;;;;16.10;10.18;;;;;;;-145.48;100.00;64539.38;6035289;29;20034;-90
2022/10/18 06:40:25;;;;;;;14.75;10.02;;;;;;;-145.48;100.00;64539.38;6068553;29;20438;-90
2022/10/18 06:44:25;;;;;;;20.75;10.10;;;;;;;-145.48;100.00;64539.38;6042867;29;20531;-89
2022/10/18 06:48:26;;;;;;;15.55;10.20;;;;;;;-145.48;100.00;64539.38;6050302;29;20606;-89
2022/10/18 06:52:26;;;;;;;18.17;9.95;;;;;;;-145.48;100.00;64539.38;6046402;29;20440;-89
2022/10/18 06:56:28;;;;;;;17.80;10.70;;;;;;;-145.48;100.00;64539.38;6044705;29;20491;-89
2022/10/18 07:00:28;;;;;;;17.85;9.48;;;;;;;-145.48;100.00;64539.38;6046450;29;20146;-89
2022/10/18 07:04:31;;;;;;;15.75;9.20;;;;;;;-145.48;100.00;64539.38;6058559;29;20052;-89
2022/10/18 07:08:32;;;;;;;14.55;8.85;;;;;;;-145.48;100.00;64539.38;6059109;29;20479;-89
2022/10/18 07:12:33;;;;;;;;;;;;;;;-145.48;100.00;64539.38;6044466;29;20642;-89
2022/10/18 07:16:33;;;;;;;15.37;8.30;;;;;;;-145.48;100.00;64539.38;6046619;29;20301;-89
2022/10/18 07:20:34;;;;;;;;;;;;;;;-145.48;100.00;64539.38;6044756;29;20496;-89
2022/10/18 07:24:35;;;;;;;12.53;8.17;;;;;;;-145.48;100.00;64539.38;6035729;29;19956;-89
2022/10/18 07:28:39;;;;;;;11.63;8.63;;;;;;;-145.48;100.00;64539.38;6041009;29;20294;-89
2022/10/18 07:32:40;;;;;;;13.95;8.30;;;;;;;-145.48;100.00;64539.38;6050834;29;20352;-89
2022/10/18 07:36:41;;;;;;;14.98;8.85;;;;;;;-145.48;100.00;64539.38;6039110;29;20107;-89
2022/10/18 07:40:41;;;;;;;14.32;9.35;;;;;;;-145.48;100.00;64539.38;6032045;29;20041;-89
2022/10/18 07:44:42;;;;;;;18.55;10.70;;;;;;;-145.48;100.00;64539.38;6029093;29;20045;-89
2022/10/18 07:48:43;;;;;;;22.10;11.23;;;;;;;-145.48;100.00;64539.38;6039868;29;20067;-89
2022/10/18 07:52:43;;;;;;;20.60;11.70;;;;;;;-145.48;100.00;64539.38;6046381;29;20064;-89
2022/10/18 07:56:44;;;;;;;19.25;11.18;;;;;;;-145.48;100.00;64539.38;6055739;29;20041;-89
2022/10/18 08:00:45;;;;;;;;;;;;;;;-145.48;100.00;64539.38;6045265;29;20056;-89
2022/10/18 08:04:45;;;;;;;15.60;10.55;;;;;;;-145.48;100.00;64539.38;6043100;29;19932;-89
2022/10/18 08:08:46;;;;;;;21.33;10.40;;;;;;;-145.48;100.00;64539.38;6047857;29;20037;-89
2022/10/18 08:12:47;;;;;;;21.55;10.93;;;;;;;-145.48;100.00;64539.38;6037843;29;20049;-89
2022/10/18 08:15:49;;;;;;;23.80;12.40;;;;;;;-145.48;100.00;64539.38;6043452;29;20044;-89
2022/10/18 08:18:57;;;;;;;24.00;12.52;;;;;;;-145.48;100.00;64539.38;6041480;29;20052;-89
2022/10/18 08:22:57;;;;;;;26.00;14.75;;;;;;;-145.48;100.00;64539.38;6041119;29;20424;-89
2022/10/18 08:27:01;;;;;;;29.35;15.48;;;;;;;-145.48;100.00;64539.38;6041094;29;20441;-89
2022/10/18 08:31:02;;;;;;;29.40;16.30;;;;;;;-145.48;100.00;64539.38;6032479;29;20076;-89
2022/10/18 08:34:53;;;;;;;25.05;15.25;;;;;;;-145.48;100.00;64539.38;6035632;29;20068;-89
2022/10/18 08:38:28;;;;;;;;;;;;;;;-145.48;100.00;64539.38;6039348;29;20040;-89
2022/10/18 08:41:33;;;;;;;30.38;16.10;;;;;;;-145.48;100.00;64539.38;6045136;29;19982;-89
2022/10/18 08:44:48;;;;;;;28.98;15.55;;;;;;;-145.48;100.00;64539.38;6042275;29;20123;-89
2022/10/18 08:47:55;;;;;;;30.80;15.73;;;;;;;-145.48;100.00;64539.38;6039099;29;20059;-90
2022/10/18 08:50:58;;;;;;;29.95;15.63;;;;;;;-145.48;100.00;64539.38;6043651;29;20075;-90
2022/10/18 08:54:25;;;;;;;26.27;14.38;;;;;;;-145.48;100.00;64539.38;6041015;29;20120;-89
2022/10/18 08:57:37;;;;;;;28.27;14.65;;;;;;;-145.48;100.00;64539.38;6058382;29;22318;-89
2022/10/18 09:01:25;;;;;;;27.73;15.23;;;;;;;-145.48;100.00;64539.38;6042512;29;20397;-90
2022/10/18 09:05:44;;;;;;;25.40;14.00;;;;;;;-145.48;100.00;64539.38;6037501;29;20041;-90
2022/10/18 09:09:26;;;;;;;25.90;13.50;;;;;;;-145.48;100.00;64539.38;6036306;29;20579;-90
2022/10/18 09:13:02;;;;;;;29.25;15.13;;;;;;;-145.48;100.00;64539.38;6037294;29;20044;-90
2022/10/18 09:16:13;;;;;;;27.33;14.60;;;;;;;-145.48;100.00;64539.38;6033277;29;20500;-90
2022/10/18 09:19:44;;;;;;;25.02;15.02;;;;;;;-145.48;100.00;64539.38;6029606;29;20046;-90
2022/10/18 09:23:18;;;;;;;29.75;15.63;;;;;;;-145.48;100.00;64539.38;6031278;29;20037;-90
2022/10/18 09:27:23;;;;;;;25.85;14.18;;;;;;;-145.48;100.00;64539.38;6040584;29;20411;-90
2022/10/18 09:31:42;;;;;;;26.45;14.38;;;;;;;-145.48;100.00;64539.38;6033464;29;20041;-92
2022/10/18 09:35:26;;;;;;;28.83;15.63;;;;;;;-145.48;100.00;64539.38;6036517;29;20045;-90
2022/10/18 09:38:33;;;;;;;30.80;15.57;;;;;;;-145.48;100.00;64539.38;6040402;29;20362;-89
2022/10/18 09:41:46;;;;;;;29.55;15.85;;;;;;;-145.48;100.00;64539.38;6043740;29;20108;-89
2022/10/18 09:45:21;;;;;;;28.73;16.25;;;;;;;-145.48;100.00;64539.38;6028652;29;20504;-89
2022/10/18 09:48:28;;;;;;;27.15;15.77;;;;;;;-145.48;100.00;64539.38;6035538;29;20056;-90
2022/10/18 09:51:35;;;;;;;30.38;16.13;;;;;;;-145.48;100.00;64539.38;6043708;29;20489;-89
2022/10/18 09:55:05;;;;;;;28.90;16.10;;;;;;;-145.48;100.00;64539.38;6040797;29;20547;-90
2022/10/18 09:58:12;;;;;;;28.87;15.70;;;;;;;-145.48;100.00;64539.38;6043542;29;20504;-89
2022/10/18 10:01:29;;;;;;;31.88;15.07;;;;;;;-145.48;100.00;64539.38;6039510;29;20056;-90
2022/10/18 10:05:29;;;;;;;24.23;14.70;;;;;;;-145.48;100.00;64539.38;6044428;29;20416;-89
2022/10/18 10:09:44;;;;;;;27.83;15.45;;;;;;;-145.48;100.00;64539.38;6047345;29;20040;-89
2022/10/18 10:13:47;;;;;;;25.88;14.23;;;;;;;-145.48;100.00;64539.38;6031019;29;20048;-89
2022/10/18 10:18:03;;;;;;;27.00;14.88;;;;;;;-145.48;100.00;64539.38;6052072;29;20234;-89
2022/10/18 10:22:05;;;;;;;24.40;13.07;;;;;;;-145.48;100.00;64539.38;6044853;29;20072;-89
2022/10/18 10:26:19;;;;;;;24.50;11.80;;;;;;;-145.48;100.00;64539.38;6020489;29;20091;-89
2022/10/18 10:30:38;;;;;;;19.40;10.10;;;;;;;-145.48;100.00;64539.38;6044728;29;20522;-90
2022/10/18 10:34:42;;;;;;;17.33;9.77;;;;;;;-145.48;100.00;64539.38;6044811;29;20075;-90
2022/10/18 10:39:10;;;;;;;20.77;10.77;;;;;;;-145.48;100.00;64539.38;6041707;29;20041;-90
2022/10/18 10:43:23;;;;;;;16.60;10.38;;;;;;;-145.48;100.00;64539.38;6047469;29;20056;-90
2022/10/18 10:47:36;;;;;;;19.52;10.68;;;;;;;-145.48;100.00;64539.38;6038955;29;20459;-90
2022/10/18 10:51:59;;;;;;;18.52;10.77;;;;;;;-145.48;100.00;64539.38;6051180;29;20053;-90
2022/10/18 10:56:43;;;;;;;17.83;9.48;;;;;;;-145.48;100.00;64539.38;6038466;29;20044;-90
2022/10/18 11:00:51;;;;;;;18.20;9.63;;;;;;;-145.48;100.00;64539.38;6046763;29;20165;-90
2022/10/18 11:04:54;;;;;;;15.60;9.82;;;;;;;-145.48;100.00;64539.38;6051027;29;20093;-90
2022/10/18 11:09:02;;;;;;;16.27;8.95;;;;;;;-145.48;100.00;64539.38;6065654;29;20063;-90
2022/10/18 11:13:22;;;;;;;20.83;8.32;;;;;;;-145.48;100.00;64539.38;6058248;29;20573;-91
2022/10/18 11:17:06;;;;;;;15.60;7.93;;;;;;;-145.48;100.00;64539.38;6060502;29;20052;-90
2022/10/18 11:20:42;;;;;;;19.10;10.38;;;;;;;-145.48;100.00;64539.38;5989933;29;20197;-90
2022/10/18 11:23:44;;;;;;;19.95;10.82;;;;;;;-145.48;100.00;64539.38;5979866;29;20094;-89
2022/10/18 11:27:13;;;;;;;18.58;10.77;;;;;;;-145.48;100.00;64539.38;5996835;29;20875;-91
2022/10/18 11:30:48;;;;;;;22.10;11.70;;;;;;;-145.48;100.00;64539.38;5964620;29;20046;-90
2022/10/18 11:33:58;;;;;;;24.40;12.15;;;;;;;-145.48;100.00;64539.38;5982884;29;20069;-89
2022/10/18 11:37:33;;;;;;;22.75;11.55;;;;;;;-145.48;100.00;64539.38;5952229;29;20081;-89
2022/10/18 11:40:48;;;;;;;26.27;12.75;;;;;;;-145.48;100.00;64539.38;5949433;29;20450;-89
2022/10/18 11:44:02;;;;;;;20.23;11.38;;;;;;;-145.48;100.00;64539.38;5974223;29;20059;-90
2022/10/18 11:47:15;;;;;;;20.35;10.15;;;;;;;-145.48;100.00;64539.38;5974660;29;20107;-90
2022/10/18 11:51:37;;;;;;;18.25;10.50;;;;;;;-145.48;100.00;64539.38;5957737;29;20066;-89
2022/10/18 11:56:20;;;;;;;17.83;9.25;;;;;;;-145.48;100.00;64539.38;5971417;29;20125;-89
2022/10/18 12:00:49;;;;;;;15.38;8.57;;;;;;;-145.48;100.00;64539.38;6048390;29;20057;-90
2022/10/18 12:04:58;;;;;;;16.50;9.52;;;;;;;-145.48;100.00;64539.38;6036012;29;20045;-90
2022/10/18 12:09:36;;;;;;;19.85;10.02;;;;;;;-145.48;100.00;64539.38;6050612;29;20041;-90
2022/10/18 12:14:12;;;;;;;14.35;8.25;;;;;;;-145.48;100.00;64539.38;6059656;29;20045;-89
2022/10/18 12:18:18;;;;;;;14.13;8.85;;;;;;;-145.48;100.00;64539.38;6041202;29;20631;-89
2022/10/18 12:22:27;;;;;;;12.45;8.65;;;;;;;-145.48;100.00;64539.38;6037257;29;20050;-89
2022/10/18 12:26:31;;;;;;;15.52;7.80;;;;;;;-145.48;100.00;64539.38;6043432;29;20183;-89
2022/10/18 12:30:49;;;;;;;16.38;8.13;;;;;;;-145.48;100.00;64539.38;6045332;29;20045;-89
2022/10/18 12:35:23;;;;;;;14.70;7.88;;;;;;;-145.48;100.00;64539.38;6044135;29;20069;-89
2022/10/18 12:38:31;;;;;;;9.15;6.20;;;;;;;-145.48;100.00;64539.38;6044149;29;20464;-89
2022/10/18 12:42:24;;;;;;;13.43;6.82;;;;;;;-145.48;100.00;64539.38;6027567;29;20057;-89
2022/10/18 12:46:20;;;;;;;11.55;4.80;;;;;;;-145.48;100.00;64539.38;6044034;29;20048;-88
2022/10/18 12:50:38;;;;;;;10.85;3.58;;;;;;;-145.48;100.00;64539.38;6039249;29;20483;-88
2022/10/18 12:54:39;;;;;;;7.32;4.05;;;;;;;-145.48;100.00;64539.38;6035784;29;20052;-88
2022/10/18 12:58:51;;;;;;;8.90;3.60;;;;;;;-145.48;100.00;64539.38;6044252;29;20060;-89
2022/10/18 13:03:12;;;;;;;8.68;3.47;;;;;;;-145.48;100.00;64539.38;6042532;29;20056;-89
2022/10/18 13:07:21;;;;;;;9.07;3.85;;;;;;;-145.48;100.00;64539.38;6046002;29;20048;-89
2022/10/18 13:11:35;;;;;;;8.60;3.17;;;;;;;-145.48;100.00;64539.38;6049524;29;20057;-89
2022/10/18 13:16:23;;;;;;;10.45;3.28;;;;;;;-145.48;100.00;64539.38;6053830;29;20040;-88
2022/10/18 13:20:48;;;;;;;8.57;2.28;;;;;;;-145.48;100.00;64539.38;6007555;29;20543;-88
2022/10/18 13:25:16;;;;;;;8.38;2.10;;;;;;;-145.48;100.00;64539.38;5999778;29;20054;-88
2022/10/18 13:29:50;;;;;;;6.40;2.47;;;;;;;-145.48;100.00;64539.38;6005910;29;20597;-88
2022/10/18 13:34:16;;;;;;;10.98;2.42;;;;;;;-145.48;100.00;64539.38;6000760;29;20053;-89
2022/10/18 13:38:24;;;;;;;6.78;2.42;;;;;;;-145.48;100.00;64539.38;6009092;29;20054;-88
2022/10/18 13:42:30;;;;;;;12.13;2.92;;;;;;;-145.48;100.00;64539.38;5999687;29;20097;-88
2022/10/18 13:46:31;;;;;;;9.75;2.80;;;;;;;-145.48;100.00;64539.38;5997700;29;20053;-88
2022/10/18 13:50:41;;;;;;;10.23;3.33;;;;;;;-145.48;100.00;64539.38;6000767;29;20081;-88
2022/10/18 13:55:13;;;;;;;5.95;2.47;;;;;;;-145.48;100.00;64539.38;5996430;29;20049;-88
2022/10/18 13:59:37;;;;;;;7.18;2.35;;;;;;;-145.48;100.00;64539.38;6032311;29;20160;-88
2022/10/18 14:04:10;;;;;;;5.32;1.85;;;;;;;-145.48;100.00;64539.38;6030959;29;20217;-88
2022/10/18 14:08:32;;;;;;;7.22;2.20;;;;;;;-145.48;100.00;64539.38;6042257;29;20416;-88
2022/10/18 14:12:43;;;;;;;5.43;1.83;;;;;;;-145.48;100.00;64539.38;6027991;29;20049;-88
2022/10/18 14:16:48;;;;;;;6.45;1.40;;;;;;;-145.48;100.00;64539.38;6043399;29;20472;-88
2022/10/18 14:21:22;;;;;;;4.15;1.60;;;;;;;-145.48;100.00;64539.38;6037920;29;20485;-88
2022/10/18 14:25:34;;;;;;;5.57;1.70;;;;;;;-145.48;100.00;64539.38;6029838;29;20466;-87
2022/10/18 14:29:35;;;;;;;6.57;1.90;;;;;;;-145.48;100.00;64539.38;6026826;29;20106;-88
2022/10/18 14:33:41;;;;;;;6.07;1.70;;;;;;;-145.48;100.00;64539.38;6027518;29;20049;-89
2022/10/18 14:37:45;;;;;;;6.40;1.17;;;;;;;-145.48;100.00;64539.38;6043113;29;20053;-88
2022/10/18 14:41:55;;;;;;;5.38;1.38;;;;;;;-145.48;100.00;64539.38;6040317;29;20050;-88
2022/10/18 14:46:06;;;;;;;2.95;1.30;;;;;;;-145.48;100.00;64539.38;6027329;29;20437;-88
2022/10/18 14:50:19;;;;;;;4.25;1.63;;;;;;;-145.48;100.00;64539.38;6027589;29;20052;-88
2022/10/18 14:54:24;;;;;;;5.47;1.80;;;;;;;-145.48;100.00;64539.38;6023824;29;20053;-88
2022/10/18 14:58:34;;;;;;;5.82;1.65;;;;;;;-145.48;100.00;64539.38;6029761;29;20425;-87
2022/10/18 15:02:37;;;;;;;6.18;1.48;;;;;;;-145.48;100.00;64539.38;6032473;29;20046;-88
2022/10/18 15:06:49;;;;;;;4.85;1.23;;;;;;;-145.48;100.00;64539.38;6037066;29;20040;-89
2022/10/18 15:10:49;;;;;;;5.63;1.15;;;;;;;-145.48;100.00;64539.38;6026227;29;20061;-87
2022/10/18 15:14:51;;;;;;;;;;;;;;;-145.48;100.00;64539.38;6057791;29;20045;-88
2022/10/18 15:19:00;;;;;;;4.18;1.00;;;;;;;-145.48;100.00;64539.38;6034937;29;19928;-88
2022/10/18 15:23:22;;;;;;;4.30;1.00;;;;;;;-145.48;100.00;64539.38;6040467;29;20048;-88
2022/10/18 15:27:30;;;;;;;3.25;0.93;;;;;;;-145.48;100.00;64539.38;6055508;29;20545;-88
2022/10/18 15:31:36;;;;;;;3.42;1.02;;;;;;;-145.48;100.00;64539.38;6036749;29;20041;-88
2022/10/18 15:35:38;;;;;;;4.45;1.13;;;;;;;-145.48;100.00;64539.38;6030869;29;20045;-88
2022/10/18 15:39:38;;;;;;;4.80;1.20;;;;;;;-145.48;100.00;64539.38;6042217;29;20712;-88
2022/10/18 15:43:38;;;;;;;8.00;1.30;;;;;;;-145.48;100.00;64539.38;6031558;29;20049;-88
2022/10/18 15:47:39;;;;;;;4.78;1.38;;;;;;;-145.48;100.00;64539.38;6044194;29;20504;-88
2022/10/18 15:51:55;;;;;;;4.25;1.00;;;;;;;-145.48;100.00;64539.38;6042127;29;20042;-88
2022/10/18 15:55:58;;;;;;;5.55;1.20;;;;;;;-145.48;100.00;64539.38;6041284;29;20049;-88
2022/10/18 16:00:03;;;;;;;6.25;1.50;;;;;;;-145.48;100.00;64539.38;6051225;29;20045;-88
2022/10/18 16:04:17;;;;;;;5.32;1.17;;;;;;;-145.48;100.00;64539.38;6045587;29;20496;-88
2022/10/18 16:08:24;;;;;;;4.80;1.83;;;;;;;-145.48;100.00;64539.38;6033581;29;20052;-88
2022/10/18 16:12:24;;;;;;;5.43;1.40;;;;;;;-145.48;100.00;64539.38;6030572;29;20037;-88
2022/10/18 16:16:25;;;;;;;2.22;1.08;;;;;;;-145.48;100.00;64539.38;6027104;29;20041;-88
2022/10/18 16:20:26;;;;;;;3.83;1.10;;;;;;;-145.48;100.00;64539.38;6038406;29;20425;-89
2022/10/18 16:24:28;;;;;;;1.98;0.95;;;;;;;-145.48;100.00;64539.38;6046544;29;20060;-88
2022/10/18 16:28:31;;;;;;;4.85;1.25;;;;;;;-145.48;100.00;64539.38;6034144;29;20109;-88
2022/10/18 16:32:32;;;;;;;2.95;1.05;;;;;;;-145.48;100.00;64539.38;6034084;29;20049;-89
2022/10/18 16:36:35;;;;;;;3.08;1.10;;;;;;;-145.48;100.00;64539.38;6028824;29;20061;-89
2022/10/18 16:40:37;;;;;;;3.75;1.40;;;;;;;-145.48;100.00;64539.38;6055710;29;20425;-88
2022/10/18 16:44:41;;;;;;;4.85;1.30;;;;;;;-145.48;100.00;64539.38;6053370;29;20030;-88
2022/10/18 16:48:42;;;;;;;5.63;1.92;;;;;;;-145.48;100.00;64539.38;6045146;29;20044;-88
2022/10/18 16:52:43;;;;;;;2.63;1.20;;;;;;;-145.48;100.00;64539.38;6041437;29;20495;-88
2022/10/18 16:56:43;;;;;;;5.78;1.40;;;;;;;-145.48;100.00;64539.38;6044848;29;20045;-89
2022/10/18 17:00:45;;;;;;;2.30;1.13;;;;;;;-145.48;100.00;64539.38;6054691;29;20056;-88
2022/10/18 17:04:46;;;;;;;2.92;1.48;;;;;;;-145.48;100.00;64539.38;6043565;29;20127;-88
2022/10/18 17:08:47;;;;;;;3.10;1.23;;;;;;;-145.48;100.00;64539.38;6045404;29;20052;-89
2022/10/18 17:12:48;;;;;;;2.92;0.85;;;;;;;-145.48;100.00;64539.38;6048347;29;20101;-88
2022/10/18 17:16:50;;;;;;;6.60;1.13;;;;;;;-145.48;100.00;64539.38;6042031;29;20037;-88
2022/10/18 17:20:58;;;;;;;6.22;1.40;;;;;;;-145.48;100.00;64539.38;6057179;29;20185;-88
2022/10/18 17:25:00;;;;;;;4.63;1.25;;;;;;;-145.48;100.00;64539.38;6045994;29;20045;-88
2022/10/18 17:29:02;;;;;;;5.07;1.25;;;;;;;-145.48;100.00;64539.38;6046195;29;20060;-89
2022/10/18 17:33:03;;;;;;;4.78;1.63;;;;;;;-145.48;100.00;64539.38;6045110;29;20085;-88
2022/10/18 17:37:08;;;;;;;4.82;1.63;;;;;;;-145.48;100.00;64539.38;6043814;29;20093;-88
2022/10/18 17:41:09;;;;;;;2.67;1.70;;;;;;;-145.48;100.00;64539.38;6045246;29;20041;-88
2022/10/18 17:45:10;;;;;;;6.38;1.60;;;;;;;-145.48;100.00;64539.38;6042812;29;20077;-89
2022/10/18 17:49:14;;;;;;;4.15;1.67;;;;;;;-145.48;100.00;64539.38;6042729;29;20057;-89